Sargent, Texas
Current Conditions -  °F | °C
As of 7:53 PM on Friday 28 Nov 2014 (Local Time) from KLBX Reporting Station
Clear Clear  
Wind Chill: 57°   Ceiling: Unl
Heat Index: 57°   Visibility: 10mi
Dew Point: 56°   Wind: 5mph
Humidity: 96%   Direction: 150°SSE
Pressure: 30.17"   Gusts: NA
Location:  28.8997°N, 95.7887°W
Report Text: KLBX 290153Z AUTO 15004KT 10SM CLR 14/13 A3017 RMK AO2 SLP217 T01390133
Loading
Personal Weather Stations






























Interactive Weather Map New forecast layout! Learn more

10-Day Weather Forecast

Advertisements
Track Severe Weather on mobile